Time;durP1;ratioP1;P1;durP2;ratioP2;P2;SDS_P1;SDS_P2;PMS_P1;PMS_P2;Temp;Humidity;BMP_temperature;BMP_pressure;BME280_temperature;BME280_humidity;BME280_pressure;Samples;Min_cycle;Max_cycle;Signal;HPM_P1;HPM_P2
2023/01/01 00:01:26;;;;;;;6.45;2.92;;;;;;;22.49;38.17;100742.84;5036082;28;20029;-63
2023/01/01 00:03:54;;;;;;;7.60;2.70;;;;;;;22.48;38.17;100758.38;5035448;28;20493;-63
2023/01/01 00:06:19;;;;;;;3.10;1.58;;;;;;;22.44;38.22;100748.94;5046330;28;20041;-65
2023/01/01 00:08:45;;;;;;;4.22;2.50;;;;;;;22.43;37.80;100754.59;5055168;28;20404;-64
2023/01/01 00:11:11;;;;;;;5.57;1.92;;;;;;;22.39;37.86;100759.63;5038034;28;20054;-64
2023/01/01 00:13:40;;;;;;;6.35;2.33;;;;;;;22.39;38.01;100756.91;5055179;28;20091;-63
2023/01/01 00:16:12;;;;;;;10.05;2.75;;;;;;;22.37;37.84;100772.66;5054828;28;20033;-63
2023/01/01 00:18:38;;;;;;;7.65;3.03;;;;;;;22.35;37.59;100768.44;5038249;28;20052;-63
2023/01/01 00:21:11;;;;;;;8.10;3.58;;;;;;;22.30;37.40;100769.09;5072925;28;20063;-63
2023/01/01 00:23:36;;;;;;;;;;;;;;;22.28;38.29;100787.53;5038380;28;20090;-63
2023/01/01 00:26:09;;;;;;;9.63;4.32;;;;;;;22.22;37.98;100788.34;5038483;28;19916;-64
2023/01/01 00:28:34;;;;;;;5.45;2.75;;;;;;;22.21;37.84;100781.22;5055134;28;20559;-64
2023/01/01 00:31:05;;;;;;;14.75;4.78;;;;;;;22.22;37.64;100793.00;5073976;28;20044;-64
2023/01/01 00:33:30;;;;;;;14.38;3.40;;;;;;;22.20;37.20;100784.16;5040005;28;20025;-69
2023/01/01 00:35:56;;;;;;;7.07;2.38;;;;;;;22.18;38.02;100776.19;5056499;28;20028;-63
2023/01/01 00:38:21;;;;;;;8.38;2.92;;;;;;;22.17;37.17;100787.28;5039871;28;20423;-62
2023/01/01 00:40:46;;;;;;;7.15;2.17;;;;;;;22.17;37.54;100774.47;5055341;28;20038;-63
2023/01/01 00:43:12;;;;;;;18.67;4.22;;;;;;;22.16;38.14;100775.56;5056106;28;20041;-63
2023/01/01 00:45:37;;;;;;;6.72;2.40;;;;;;;22.16;36.99;100783.75;5055933;28;20385;-62
2023/01/01 00:48:03;;;;;;;6.60;1.80;;;;;;;22.14;36.81;100774.91;5073584;28;20036;-63
2023/01/01 00:50:28;;;;;;;36.25;11.10;;;;;;;22.15;37.85;100775.75;5056766;28;20080;-63
2023/01/01 00:52:54;;;;;;;23.08;7.53;;;;;;;22.15;37.28;100781.19;5055721;28;20105;-62
2023/01/01 00:55:19;;;;;;;20.85;5.80;;;;;;;22.13;37.70;100780.56;5039155;28;20037;-63
2023/01/01 00:57:44;;;;;;;10.85;3.00;;;;;;;22.12;37.69;100777.00;5055680;28;20032;-62
2023/01/01 01:00:10;;;;;;;5.80;3.45;;;;;;;22.10;37.28;100770.91;5055600;28;20503;-62
2023/01/01 01:02:36;;;;;;;4.80;1.48;;;;;;;22.10;36.84;100770.06;5055960;28;20028;-62
2023/01/01 01:05:03;;;;;;;4.15;1.20;;;;;;;22.09;37.19;100776.56;5019084;28;20029;-63
2023/01/01 01:07:33;;;;;;;2.05;0.90;;;;;;;22.05;37.21;100766.03;5056071;28;20037;-62
2023/01/01 01:09:58;;;;;;;5.13;1.67;;;;;;;22.04;36.92;100779.91;5055820;28;20036;-62
2023/01/01 01:12:24;;;;;;;4.00;1.23;;;;;;;22.03;37.43;100786.41;5055443;28;20489;-62
2023/01/01 01:14:49;;;;;;;4.28;1.10;;;;;;;22.03;36.38;100783.69;5055196;28;20032;-62
2023/01/01 01:17:14;;;;;;;2.55;1.23;;;;;;;21.99;36.57;100785.16;5073772;28;20028;-63
2023/01/01 01:19:40;;;;;;;5.80;1.73;;;;;;;21.95;37.04;100783.84;5055294;28;20086;-63
2023/01/01 01:22:05;;;;;;;2.58;1.13;;;;;;;21.95;37.28;100792.03;5039555;28;20050;-63
2023/01/01 01:24:30;;;;;;;4.68;1.05;;;;;;;21.94;36.75;100790.38;5055727;28;20036;-63
2023/01/01 01:26:57;;;;;;;1.83;1.20;;;;;;;21.91;36.73;100796.25;5055143;28;20115;-63
2023/01/01 01:29:22;;;;;;;1.20;0.80;;;;;;;21.90;36.58;100791.81;5039285;28;20028;-63
2023/01/01 01:31:48;;;;;;;5.90;1.40;;;;;;;21.90;37.24;100800.00;5038557;28;20036;-63
2023/01/01 01:34:14;;;;;;;6.22;1.10;;;;;;;21.87;37.36;100794.94;5038537;28;20037;-63
2023/01/01 01:36:39;;;;;;;2.33;0.70;;;;;;;21.85;36.61;100791.56;5038647;28;20132;-63
2023/01/01 01:39:05;;;;;;;1.83;0.75;;;;;;;21.86;36.42;100788.63;5073181;28;20107;-63
2023/01/01 01:41:30;;;;;;;3.80;0.80;;;;;;;21.84;36.89;100789.88;5056266;28;20058;-63
2023/01/01 01:44:01;;;;;;;5.05;1.33;;;;;;;21.82;36.79;100802.88;5038455;28;20028;-64
2023/01/01 01:46:33;;;;;;;1.50;0.88;;;;;;;21.82;36.04;100797.41;5055122;28;20033;-63
2023/01/01 01:49:03;;;;;;;6.03;1.17;;;;;;;21.82;36.55;100797.41;5072672;28;20055;-64
2023/01/01 01:51:38;;;;;;;5.63;1.02;;;;;;;21.81;35.98;100806.63;5055102;28;20064;-63
2023/01/01 01:54:07;;;;;;;2.55;1.23;;;;;;;21.78;37.05;100801.59;5055661;28;20059;-63
2023/01/01 01:56:55;;;;;;;1.48;1.17;;;;;;;21.78;37.26;100818.78;5055582;28;20028;-63
2023/01/01 01:59:21;;;;;;;3.97;0.70;;;;;;;21.77;37.29;100810.81;5054919;28;20590;-63
2023/01/01 02:01:47;;;;;;;4.38;1.15;;;;;;;21.78;37.17;100826.13;5055046;28;20044;-63
2023/01/01 02:04:12;;;;;;;1.05;0.95;;;;;;;21.75;37.22;100815.63;5072911;28;20282;-63
2023/01/01 02:06:38;;;;;;;9.48;1.00;;;;;;;21.76;36.45;100820.88;5054890;28;20032;-63
2023/01/01 02:09:05;;;;;;;1.95;0.60;;;;;;;21.75;37.18;100830.09;5037986;28;20032;-63
2023/01/01 02:11:31;;;;;;;4.03;0.85;;;;;;;21.74;37.05;100827.59;5038561;28;20111;-63
2023/01/01 02:13:56;;;;;;;2.67;0.75;;;;;;;21.74;37.34;100828.44;5072892;28;20074;-63
2023/01/01 02:16:24;;;;;;;4.85;1.13;;;;;;;21.77;36.49;100824.47;5054794;28;20466;-63
2023/01/01 02:19:03;;;;;;;5.68;0.73;;;;;;;21.79;37.00;100833.28;5054648;28;20032;-63
2023/01/01 02:22:06;;;;;;;1.65;0.60;;;;;;;21.78;36.37;100828.84;5054632;28;20048;-63
2023/01/01 02:24:54;;;;;;;5.50;0.73;;;;;;;21.77;36.39;100821.72;5054590;28;20047;-63
2023/01/01 02:27:38;;;;;;;4.75;0.95;;;;;;;21.77;37.23;100821.72;5037906;28;20029;-63
2023/01/01 02:30:06;;;;;;;6.45;1.00;;;;;;;21.78;36.46;100828.84;5053614;28;20037;-63
2023/01/01 02:32:54;;;;;;;5.07;1.15;;;;;;;21.79;36.60;100827.81;5038360;28;20028;-63
2023/01/01 02:35:37;;;;;;;3.55;0.68;;;;;;;21.76;36.69;100820.03;5041457;28;20147;-63
2023/01/01 02:38:21;;;;;;;1.50;0.77;;;;;;;21.74;36.90;100814.81;5076296;28;20496;-63
2023/01/01 02:40:53;;;;;;;2.22;0.60;;;;;;;21.78;37.42;100828.84;5032460;28;20044;-63
2023/01/01 02:43:19;;;;;;;;;;;;;;;21.80;37.03;100826.78;5042151;28;20111;-63
2023/01/01 02:45:44;;;;;;;6.38;1.17;;;;;;;21.79;37.32;100836.84;5076225;28;20447;-63
2023/01/01 02:49:04;;;;;;;1.40;0.63;;;;;;;21.78;37.46;100840.59;5041568;28;20107;-63
2023/01/01 02:51:48;;;;;;;5.07;0.88;;;;;;;21.75;36.52;100823.81;4958812;28;20072;-62
2023/01/01 02:54:16;;;;;;;4.00;0.90;;;;;;;21.75;37.46;100853.78;4959456;28;20114;-62
2023/01/01 02:56:49;;;;;;;5.65;0.80;;;;;;;21.73;37.53;100854.00;4975719;28;20030;-63
2023/01/01 03:02:49;;;;;;;5.07;0.50;;;;;;;21.70;36.71;100869.94;4970336;28;20165;-63
2023/01/01 03:05:23;;;;;;;6.30;0.60;;;;;;;21.66;37.74;100863.19;4975231;28;20054;-62
2023/01/01 03:07:51;;;;;;;1.75;0.65;;;;;;;21.64;37.62;100857.09;4975238;28;20079;-62
2023/01/01 03:10:26;;;;;;;1.20;1.00;;;;;;;21.62;37.10;100856.47;4974987;28;20126;-62
2023/01/01 03:13:09;;;;;;;4.28;1.55;;;;;;;21.62;36.85;100849.13;4975047;28;20059;-63
2023/01/01 03:16:14;;;;;;;5.78;0.95;;;;;;;21.59;37.08;100846.78;4958866;28;20039;-63
2023/01/01 03:19:10;;;;;;;7.68;1.17;;;;;;;21.59;37.56;100846.78;4924246;28;20140;-62
2023/01/01 03:21:58;;;;;;;6.85;0.75;;;;;;;21.56;38.13;100846.34;4958763;28;20042;-63
2023/01/01 03:24:29;;;;;;;2.45;0.77;;;;;;;21.54;37.81;100842.97;4965210;28;20030;-63
2023/01/01 03:26:59;;;;;;;3.72;0.95;;;;;;;21.54;37.29;100854.75;5043984;28;20021;-62
2023/01/01 03:29:26;;;;;;;1.42;0.60;;;;;;;21.58;37.53;100849.72;5061736;28;20036;-62
2023/01/01 03:31:54;;;;;;;1.25;0.63;;;;;;;21.57;37.20;100854.34;5041935;28;20037;-62
2023/01/01 03:34:29;;;;;;;5.15;0.88;;;;;;;21.56;37.11;100857.25;5057666;28;20033;-63
2023/01/01 03:36:56;;;;;;;0.80;0.55;;;;;;;21.58;37.20;100861.47;5041301;28;20028;-62
2023/01/01 03:39:28;;;;;;;1.17;0.68;;;;;;;21.59;38.18;100867.75;5058041;28;20032;-66
2023/01/01 03:42:05;;;;;;;4.10;0.77;;;;;;;21.59;37.43;100862.31;5057805;28;20016;-63
2023/01/01 03:44:40;;;;;;;3.83;0.98;;;;;;;21.57;37.21;100878.03;5057999;28;20029;-63
2023/01/01 03:47:06;;;;;;;6.35;1.00;;;;;;;21.55;38.18;100864.63;5075484;28;20508;-63
2023/01/01 03:49:31;;;;;;;2.58;0.60;;;;;;;21.54;37.71;100856.63;5038344;28;20047;-64
2023/01/01 03:52:21;;;;;;;4.85;0.80;;;;;;;21.55;37.79;100861.03;5037210;28;20472;-63
2023/01/01 03:54:51;;;;;;;3.08;0.98;;;;;;;21.55;38.26;100874.66;5074011;28;20043;-63
2023/01/01 03:58:00;;;;;;;1.95;1.20;;;;;;;21.53;37.60;100879.47;5055984;28;20032;-63
2023/01/01 04:01:09;;;;;;;2.72;0.65;;;;;;;21.54;37.37;100873.81;5011389;28;20033;-63
2023/01/01 04:03:36;;;;;;;2.10;0.90;;;;;;;21.51;37.50;100870.66;5025332;28;20429;-63
2023/01/01 04:06:02;;;;;;;6.40;1.20;;;;;;;21.54;37.71;100883.88;5019936;28;20036;-63
2023/01/01 04:08:28;;;;;;;2.53;0.90;;;;;;;21.55;38.28;100877.41;5051859;28;20021;-64
2023/01/01 04:10:58;;;;;;;4.90;0.80;;;;;;;21.54;37.92;100875.69;5057077;28;20463;-63
2023/01/01 04:13:23;;;;;;;2.38;0.95;;;;;;;21.54;37.58;100882.00;5056953;28;20037;-63
2023/01/01 04:15:49;;;;;;;0.98;0.60;;;;;;;21.54;38.48;100883.88;5056354;28;20127;-63
2023/01/01 04:18:15;;;;;;;4.68;1.13;;;;;;;21.53;38.48;100884.91;5056810;28;20033;-63
2023/01/01 04:20:40;;;;;;;4.13;1.08;;;;;;;21.52;37.89;100888.69;5056957;28;20032;-63
2023/01/01 04:23:05;;;;;;;3.50;0.70;;;;;;;21.50;38.29;100893.50;5056950;28;20098;-63
2023/01/01 04:25:31;;;;;;;4.60;0.98;;;;;;;21.52;38.31;100894.16;5074483;28;20119;-63
2023/01/01 04:27:57;;;;;;;3.83;0.57;;;;;;;21.51;37.70;100892.44;5039946;28;20500;-63
2023/01/01 04:30:23;;;;;;;1.23;0.65;;;;;;;21.51;38.05;100901.47;5056277;28;20024;-63
2023/01/01 04:32:48;;;;;;;4.18;1.15;;;;;;;21.50;37.76;100891.59;5056105;28;20443;-62
2023/01/01 04:35:14;;;;;;;4.95;1.25;;;;;;;21.49;38.18;100884.50;5040409;28;20461;-62
2023/01/01 04:37:41;;;;;;;2.55;1.13;;;;;;;21.46;38.23;100869.38;5056215;28;20058;-63
2023/01/01 04:40:07;;;;;;;2.42;0.63;;;;;;;21.47;38.40;100876.50;5038903;28;20033;-63
2023/01/01 04:42:33;;;;;;;2.22;0.70;;;;;;;21.46;38.71;100884.88;5056254;28;20562;-63
2023/01/01 04:44:58;;;;;;;3.70;1.00;;;;;;;21.45;38.81;100880.47;5056025;28;20032;-63
2023/01/01 04:47:25;;;;;;;0.85;0.65;;;;;;;21.47;37.90;100881.94;5056440;28;20066;-62
2023/01/01 04:49:51;;;;;;;1.73;0.80;;;;;;;21.45;37.91;100875.84;5055871;28;20041;-63
2023/01/01 04:52:16;;;;;;;2.42;0.80;;;;;;;21.44;38.35;100870.59;5055037;28;20055;-62
2023/01/01 04:54:42;;;;;;;2.30;0.85;;;;;;;21.42;38.46;100876.25;5039426;28;20036;-64
2023/01/01 04:57:07;;;;;;;1.50;0.98;;;;;;;21.40;38.42;100899.28;5038850;28;20498;-64
2023/01/01 04:59:32;;;;;;;2.08;1.00;;;;;;;21.38;38.87;100915.81;5039744;28;20046;-62
2023/01/01 05:01:58;;;;;;;1.67;0.70;;;;;;;21.36;38.70;100917.91;5037943;28;20043;-62
2023/01/01 05:04:23;;;;;;;4.47;1.00;;;;;;;21.33;38.91;100901.97;5022724;28;20574;-64
2023/01/01 05:06:48;;;;;;;5.22;0.85;;;;;;;21.32;39.01;100915.78;5055806;28;20115;-63
2023/01/01 05:09:14;;;;;;;1.95;1.13;;;;;;;21.31;38.24;100905.91;5038835;28;20055;-63
2023/01/01 05:11:39;;;;;;;5.32;0.90;;;;;;;21.31;38.67;100912.22;5074035;28;20404;-63
2023/01/01 05:14:06;;;;;;;1.90;1.00;;;;;;;21.31;39.02;100908.66;5038921;28;20409;-63
2023/01/01 05:16:36;;;;;;;6.30;1.45;;;;;;;21.27;38.68;100907.38;5055515;28;20077;-63
2023/01/01 05:19:02;;;;;;;6.57;0.60;;;;;;;21.28;38.32;100909.88;5055549;28;20112;-63
2023/01/01 05:21:31;;;;;;;2.20;0.88;;;;;;;21.26;39.27;100922.88;5055723;28;20120;-63
2023/01/01 05:23:59;;;;;;;2.53;1.00;;;;;;;21.24;38.80;100927.69;5055506;28;20028;-63
2023/01/01 05:26:27;;;;;;;2.03;0.93;;;;;;;21.25;39.26;100910.28;5039311;28;20504;-63
2023/01/01 05:28:52;;;;;;;3.25;1.15;;;;;;;21.26;39.00;100943.81;5039461;28;20033;-63
2023/01/01 05:31:21;;;;;;;8.45;1.02;;;;;;;21.25;39.12;100942.97;5038770;28;20036;-63
2023/01/01 05:33:46;;;;;;;2.90;0.88;;;;;;;21.27;38.90;100951.78;5055171;28;20060;-63
2023/01/01 05:36:25;;;;;;;3.90;1.90;;;;;;;21.27;38.43;100950.97;5038607;28;20048;-63
2023/01/01 05:38:51;;;;;;;2.28;1.00;;;;;;;21.25;39.33;100964.78;5038575;28;20389;-62
2023/01/01 05:41:18;;;;;;;3.10;1.05;;;;;;;21.27;38.52;100968.13;5055602;28;20035;-63
2023/01/01 05:43:44;;;;;;;4.20;0.80;;;;;;;21.26;38.38;100976.53;5055324;28;20497;-63
2023/01/01 05:46:12;;;;;;;3.72;0.90;;;;;;;21.26;38.94;100985.56;5038365;28;20091;-62
2023/01/01 05:48:38;;;;;;;4.88;1.13;;;;;;;21.26;38.88;100976.53;5055056;28;20466;-63
2023/01/01 05:51:04;;;;;;;3.10;1.25;;;;;;;21.27;39.43;100973.59;5054899;28;20040;-62
2023/01/01 05:53:30;;;;;;;1.70;0.70;;;;;;;21.26;39.16;100988.28;5038726;28;20154;-62
2023/01/01 05:55:56;;;;;;;3.42;1.10;;;;;;;21.28;39.00;100986.19;5055067;28;20499;-63
2023/01/01 05:58:21;;;;;;;1.75;1.20;;;;;;;21.29;39.20;100993.34;5054829;28;20032;-63
2023/01/01 06:00:47;;;;;;;6.47;1.10;;;;;;;21.31;39.35;100983.06;5038733;28;20496;-63
2023/01/01 06:03:12;;;;;;;4.68;0.90;;;;;;;21.32;39.25;100992.94;5054950;28;20036;-63
2023/01/01 06:05:38;;;;;;;2.88;0.90;;;;;;;21.32;39.38;101006.56;5038609;28;20550;-63
2023/01/01 06:08:03;;;;;;;5.68;1.00;;;;;;;21.31;38.66;101010.34;5036546;28;20081;-63
2023/01/01 06:10:29;;;;;;;3.40;1.08;;;;;;;21.32;39.42;101009.31;5038003;28;20033;-64
2023/01/01 06:12:58;;;;;;;3.55;0.60;;;;;;;21.31;39.21;101004.88;5072849;28;20029;-63
2023/01/01 06:15:26;;;;;;;1.15;0.75;;;;;;;21.30;39.70;101016.81;5072610;28;20040;-63
2023/01/01 06:17:52;;;;;;;2.38;1.23;;;;;;;21.28;39.18;101013.44;5021950;28;20492;-63
2023/01/01 06:20:18;;;;;;;6.80;1.30;;;;;;;21.26;39.65;101025.56;5038226;28;20024;-63
2023/01/01 06:22:43;;;;;;;6.60;1.25;;;;;;;21.26;39.89;101029.16;5072467;28;20036;-63
2023/01/01 06:25:10;;;;;;;3.47;0.80;;;;;;;21.29;39.90;101038.81;5054762;28;20036;-63
2023/01/01 06:27:35;;;;;;;6.13;0.75;;;;;;;21.30;40.11;101035.06;5054381;28;20037;-63
2023/01/01 06:30:02;;;;;;;5.30;1.08;;;;;;;21.30;39.80;101035.88;5054439;28;20090;-63
2023/01/01 06:32:27;;;;;;;3.30;0.68;;;;;;;21.30;39.79;101032.34;5038827;28;20040;-63
2023/01/01 06:34:53;;;;;;;5.68;1.30;;;;;;;21.30;40.07;101040.50;5072585;28;20036;-63
2023/01/01 06:37:18;;;;;;;7.05;1.08;;;;;;;21.27;39.96;101038.19;5037920;28;20033;-64
2023/01/01 06:39:43;;;;;;;4.25;1.15;;;;;;;21.25;40.04;101035.63;5072436;28;20029;-63
2023/01/01 06:42:09;;;;;;;4.80;1.77;;;;;;;21.25;40.30;101046.53;5038074;28;20060;-63
2023/01/01 06:44:34;;;;;;;5.07;1.20;;;;;;;21.21;39.96;101061.59;5055332;28;20422;-63
2023/01/01 06:47:00;;;;;;;5.28;0.80;;;;;;;21.18;39.64;101067.44;5021567;28;20033;-63
2023/01/01 06:49:25;;;;;;;6.32;1.00;;;;;;;21.18;39.59;101083.78;5037743;28;20040;-63
2023/01/01 06:51:50;;;;;;;2.20;0.77;;;;;;;21.16;39.72;101080.38;5072467;28;20056;-63
2023/01/01 06:54:16;;;;;;;2.58;0.88;;;;;;;21.10;40.64;101081.16;5037980;28;20032;-63
2023/01/01 06:56:41;;;;;;;2.40;1.10;;;;;;;21.05;40.31;101088.19;5037874;28;20097;-64
2023/01/01 06:59:06;;;;;;;5.50;0.98;;;;;;;20.99;41.00;101117.03;5054869;28;20059;-63
2023/01/01 07:01:34;;;;;;;3.47;0.95;;;;;;;20.92;41.04;101107.91;5072458;28;20059;-63
2023/01/01 07:04:07;;;;;;;3.10;0.90;;;;;;;20.85;40.49;101120.63;5037905;28;20408;-63
2023/01/01 07:06:33;;;;;;;5.00;1.48;;;;;;;20.77;40.80;101126.16;5038072;28;20028;-64
2023/01/01 07:08:59;;;;;;;5.13;0.95;;;;;;;20.72;41.27;101126.69;5054359;28;20024;-63
2023/01/01 07:11:25;;;;;;;6.85;1.00;;;;;;;20.69;41.49;101126.22;5038506;28;20082;-63
2023/01/01 07:13:51;;;;;;;4.13;0.95;;;;;;;20.64;41.22;101113.19;5054612;28;20408;-63
2023/01/01 07:16:17;;;;;;;2.53;1.30;;;;;;;20.60;41.54;101116.47;5056547;28;20199;-62
2023/01/01 07:18:43;;;;;;;6.50;1.15;;;;;;;20.57;41.08;101122.28;5037501;28;20107;-63
2023/01/01 07:21:42;;;;;;;1.80;0.77;;;;;;;20.56;42.08;101126.03;5023917;28;20032;-62
2023/01/01 07:24:10;;;;;;;3.80;0.80;;;;;;;20.51;42.04;101109.44;5075613;28;20116;-63
2023/01/01 07:26:35;;;;;;;4.03;1.73;;;;;;;20.48;42.11;101113.38;5058049;28;20496;-63
2023/01/01 07:29:01;;;;;;;1.92;0.82;;;;;;;20.47;42.03;101118.97;5040906;28;20120;-63
2023/01/01 07:31:27;;;;;;;7.50;1.20;;;;;;;20.44;41.71;101135.69;5057642;28;20028;-63
2023/01/01 07:33:52;;;;;;;8.35;1.33;;;;;;;20.45;42.32;101140.09;5057344;28;20448;-63
2023/01/01 07:36:17;;;;;;;6.18;1.80;;;;;;;20.45;41.96;101142.84;5057435;28;20043;-63
2023/01/01 07:38:43;;;;;;;4.70;1.10;;;;;;;20.44;41.92;101138.41;5057262;28;20063;-63
2023/01/01 07:41:08;;;;;;;2.75;0.90;;;;;;;20.48;41.96;101167.81;5075514;28;20441;-63
2023/01/01 07:43:34;;;;;;;4.10;1.05;;;;;;;20.48;42.48;101172.41;5039467;28;20039;-63
2023/01/01 07:45:59;;;;;;;4.65;1.42;;;;;;;20.50;42.29;101164.88;5057321;28;20540;-63
2023/01/01 07:48:25;;;;;;;5.55;1.15;;;;;;;20.49;42.19;101176.81;5040529;28;20038;-63
2023/01/01 07:50:50;;;;;;;5.53;1.90;;;;;;;20.47;42.43;101174.28;5057551;28;20036;-62
2023/01/01 07:53:16;;;;;;;4.03;0.98;;;;;;;20.50;42.44;101173.06;5074338;28;20048;-62
2023/01/01 07:55:41;;;;;;;8.65;1.33;;;;;;;20.47;42.22;101170.69;5047414;28;20035;-63
2023/01/01 07:58:07;;;;;;;1.88;0.90;;;;;;;20.48;42.47;101184.13;5057612;28;20032;-62
2023/01/01 08:00:34;;;;;;;3.22;1.92;;;;;;;20.46;42.12;101191.66;5041881;28;20048;-64
2023/01/01 08:03:00;;;;;;;3.08;1.02;;;;;;;20.47;42.42;101182.44;5042758;28;20028;-63
2023/01/01 08:05:25;;;;;;;3.85;0.90;;;;;;;20.49;42.76;101190.44;5058578;28;20366;-63
2023/01/01 08:07:51;;;;;;;6.47;1.23;;;;;;;20.49;42.38;101179.53;5041182;28;20032;-63
2023/01/01 08:10:18;;;;;;;5.03;1.50;;;;;;;20.51;42.43;101175.59;5059514;28;20117;-63
2023/01/01 08:12:44;;;;;;;7.82;1.45;;;;;;;20.51;42.33;101185.63;5043226;28;20047;-66
2023/01/01 08:15:10;;;;;;;7.88;1.02;;;;;;;20.48;42.93;101184.13;5075532;28;20037;-63
2023/01/01 08:17:36;;;;;;;5.88;1.85;;;;;;;20.50;42.66;101200.28;5057285;28;20032;-63
2023/01/01 08:20:01;;;;;;;3.40;1.60;;;;;;;20.47;42.79;101203.34;5056984;28;20091;-63
2023/01/01 08:22:26;;;;;;;4.00;1.27;;;;;;;20.51;42.11;101210.13;5056659;28;20036;-63
2023/01/01 08:24:52;;;;;;;2.38;0.80;;;;;;;20.51;42.39;101210.13;5056808;28;20447;-63
2023/01/01 08:27:17;;;;;;;6.40;1.02;;;;;;;20.56;42.91;101232.19;5056471;28;20024;-63
2023/01/01 08:29:43;;;;;;;6.07;1.42;;;;;;;20.58;42.48;101227.41;5039632;28;20408;-63
2023/01/01 08:32:09;;;;;;;7.60;1.25;;;;;;;20.64;42.51;101232.97;5056272;28;20124;-63
2023/01/01 08:34:35;;;;;;;5.70;2.00;;;;;;;20.68;42.66;101233.47;5056494;28;20496;-63
2023/01/01 08:37:00;;;;;;;9.07;1.50;;;;;;;20.69;42.65;101240.56;5056503;28;20040;-63
2023/01/01 08:39:26;;;;;;;2.65;1.40;;;;;;;20.69;43.03;101233.25;5039745;28;20029;-63
2023/01/01 08:41:51;;;;;;;2.70;1.05;;;;;;;20.69;42.28;101244.16;5056390;28;20523;-63
2023/01/01 08:44:16;;;;;;;4.93;1.10;;;;;;;20.72;42.32;101257.41;5039961;28;20107;-63
2023/01/01 08:46:42;;;;;;;3.08;1.30;;;;;;;20.74;42.21;101266.22;5039602;28;20408;-63
2023/01/01 08:49:07;;;;;;;2.20;0.95;;;;;;;20.74;42.31;101260.78;5056075;28;20131;-63
2023/01/01 08:51:32;;;;;;;7.75;1.38;;;;;;;20.75;42.63;101261.63;5039594;28;20110;-63
2023/01/01 08:53:58;;;;;;;5.35;1.20;;;;;;;20.76;42.90;101268.78;5073871;28;20033;-63
2023/01/01 08:56:24;;;;;;;5.15;1.13;;;;;;;20.77;42.81;101274.03;5056682;28;20100;-63
2023/01/01 08:58:49;;;;;;;3.60;1.63;;;;;;;20.79;43.05;101276.59;5073790;28;20033;-63
2023/01/01 09:01:15;;;;;;;3.50;1.17;;;;;;;20.80;42.34;101270.09;5055987;28;20025;-63
2023/01/01 09:03:40;;;;;;;6.32;0.77;;;;;;;20.85;42.85;101278.56;5039212;28;20029;-63
2023/01/01 09:06:05;;;;;;;1.77;1.08;;;;;;;20.86;42.63;101272.06;5055689;28;20062;-63
2023/01/01 09:08:31;;;;;;;2.50;1.00;;;;;;;20.89;42.68;101277.16;5056177;28;20037;-63
2023/01/01 09:10:59;;;;;;;5.05;1.63;;;;;;;20.93;42.95;101297.56;5055726;28;20025;-63
2023/01/01 09:13:24;;;;;;;4.82;1.02;;;;;;;20.94;42.75;101282.88;5073482;28;20024;-63
2023/01/01 09:15:50;;;;;;;2.40;0.85;;;;;;;20.96;43.08;101286.28;5039160;28;20067;-63
2023/01/01 09:18:15;;;;;;;4.00;1.48;;;;;;;20.96;42.94;101280.84;5056061;28;20074;-63
2023/01/01 09:20:40;;;;;;;4.57;0.95;;;;;;;20.97;42.58;101292.56;5073668;28;20039;-65
2023/01/01 09:23:06;;;;;;;1.30;0.88;;;;;;;20.99;42.80;101295.97;5073878;28;20021;-63
2023/01/01 09:25:33;;;;;;;3.38;1.13;;;;;;;21.00;42.47;101282.16;5055417;28;20530;-63
2023/01/01 09:28:04;;;;;;;2.00;1.10;;;;;;;21.00;42.62;101286.75;5055465;28;20033;-63
2023/01/01 09:30:29;;;;;;;3.58;0.90;;;;;;;21.01;43.38;101300.19;5056367;28;20047;-63
2023/01/01 09:32:55;;;;;;;7.68;1.15;;;;;;;20.99;42.96;101307.72;5039036;28;20476;-63
2023/01/01 09:35:20;;;;;;;5.00;1.30;;;;;;;20.95;42.58;101305.53;5073740;28;20100;-63
2023/01/01 09:37:46;;;;;;;3.80;1.17;;;;;;;20.90;43.33;101300.66;5073446;28;20040;-65
2023/01/01 09:40:25;;;;;;;4.47;1.25;;;;;;;20.90;42.79;101315.13;5038760;28;20036;-64
2023/01/01 09:43:17;;;;;;;5.82;1.45;;;;;;;20.87;43.27;101320.06;5073188;28;20452;-63
2023/01/01 09:46:06;;;;;;;3.53;1.23;;;;;;;20.85;42.77;101303.91;5054538;28;20111;-63
2023/01/01 09:48:35;;;;;;;6.68;1.45;;;;;;;20.87;42.80;101298.28;5042776;28;20082;-63
2023/01/01 09:51:03;;;;;;;5.75;1.42;;;;;;;20.91;43.37;101299.59;5039266;28;20041;-63
2023/01/01 09:53:50;;;;;;;3.25;1.05;;;;;;;20.93;43.60;101297.56;5038811;28;20056;-63
2023/01/01 09:56:30;;;;;;;5.55;1.20;;;;;;;20.96;43.12;101290.88;5055407;28;20102;-63
2023/01/01 09:58:58;;;;;;;2.50;1.35;;;;;;;20.95;42.78;101290.03;5073137;28;20029;-63
2023/01/01 10:01:45;;;;;;;6.45;1.20;;;;;;;20.98;42.56;101300.56;5038527;28;20029;-63
2023/01/01 10:04:31;;;;;;;5.82;1.35;;;;;;;20.99;42.52;101307.72;5055198;28;20032;-63
2023/01/01 10:07:26;;;;;;;3.33;0.90;;;;;;;21.01;42.37;101302.91;5040776;28;20064;-63
2023/01/01 10:10:25;;;;;;;5.82;0.82;;;;;;;21.06;42.94;101299.63;5018407;28;20033;-63
2023/01/01 10:13:13;;;;;;;5.22;1.52;;;;;;;21.08;42.75;101313.97;5051177;28;20120;-63
2023/01/01 10:15:41;;;;;;;2.13;1.00;;;;;;;21.09;43.31;101308.31;5016225;28;20049;-63
2023/01/01 10:18:15;;;;;;;5.35;1.30;;;;;;;21.10;42.79;101303.72;5017730;28;20515;-63
2023/01/01 10:20:49;;;;;;;4.95;0.85;;;;;;;21.11;43.12;101300.78;5024656;28;20380;-64
2023/01/01 10:23:25;;;;;;;11.52;1.73;;;;;;;21.17;43.19;101289.16;5006221;28;20018;-63
2023/01/01 10:25:52;;;;;;;6.85;1.23;;;;;;;21.26;42.82;101288.03;5031609;28;20033;-62
2023/01/01 10:28:21;;;;;;;2.00;0.80;;;;;;;21.39;42.67;101299.13;5038697;28;20074;-62
2023/01/01 10:30:47;;;;;;;1.23;0.73;;;;;;;21.47;42.27;101285.41;5072605;28;20116;-62
2023/01/01 10:33:13;;;;;;;3.25;1.08;;;;;;;21.55;41.88;101286.34;5038197;28;20036;-62
2023/01/01 10:35:41;;;;;;;4.22;0.82;;;;;;;21.61;42.63;101291.06;5055369;28;20082;-62
2023/01/01 10:38:06;;;;;;;7.32;1.50;;;;;;;21.63;41.89;101284.38;5038566;28;20445;-65
2023/01/01 10:40:32;;;;;;;4.95;1.02;;;;;;;21.65;42.52;101276.84;5054606;28;20056;-62
2023/01/01 10:43:00;;;;;;;4.25;1.35;;;;;;;21.67;42.53;101284.81;5054861;28;20033;-62
2023/01/01 10:45:30;;;;;;;5.05;0.73;;;;;;;21.71;42.17;101286.97;5072702;28;20115;-62
2023/01/01 10:48:15;;;;;;;3.38;0.98;;;;;;;21.79;42.80;101278.69;5054375;28;20016;-62
2023/01/01 10:50:45;;;;;;;7.53;1.50;;;;;;;21.91;41.67;101287.25;5072672;28;20491;-64
2023/01/01 10:53:25;;;;;;;8.88;1.20;;;;;;;22.08;42.49;101293.34;5049341;28;20049;-62
2023/01/01 10:55:57;;;;;;;5.63;0.95;;;;;;;22.29;41.12;101296.94;5074851;28;20032;-63
2023/01/01 10:58:33;;;;;;;6.57;1.10;;;;;;;22.53;41.69;101304.72;5058690;28;20047;-62
2023/01/01 11:01:01;;;;;;;4.57;1.40;;;;;;;22.58;41.41;101304.16;5058469;28;20028;-61
2023/01/01 11:03:26;;;;;;;1.48;0.98;;;;;;;22.65;41.12;101302.34;5041832;28;20508;-63
2023/01/01 11:06:02;;;;;;;2.75;1.13;;;;;;;22.60;41.94;101304.81;5058570;28;20025;-62
2023/01/01 11:08:29;;;;;;;7.15;1.45;;;;;;;22.57;41.96;101306.03;5076605;28;20115;-63
2023/01/01 11:10:57;;;;;;;6.63;2.05;;;;;;;22.54;41.01;101309.16;5041607;28;20029;-63
2023/01/01 11:13:22;;;;;;;0.75;0.70;;;;;;;22.52;41.71;101303.06;5057957;28;20032;-63
2023/01/01 11:15:48;;;;;;;4.80;1.02;;;;;;;22.57;42.16;101316.97;5076336;28;20040;-62
2023/01/01 11:18:21;;;;;;;7.28;1.40;;;;;;;22.65;41.62;101328.81;5058508;28;20071;-63
2023/01/01 11:20:54;;;;;;;5.55;0.98;;;;;;;22.64;41.10;101336.16;5041626;28;20033;-63
2023/01/01 11:23:30;;;;;;;2.13;1.13;;;;;;;22.70;40.96;101338.13;5042393;28;20024;-63
2023/01/01 11:25:57;;;;;;;3.15;1.42;;;;;;;22.79;41.25;101330.63;5026653;28;20033;-63
2023/01/01 11:28:22;;;;;;;4.97;1.50;;;;;;;22.78;41.11;101343.44;5037396;28;20029;-62
2023/01/01 11:30:58;;;;;;;5.53;1.08;;;;;;;22.75;41.18;101334.81;5021192;28;20045;-63
2023/01/01 11:33:25;;;;;;;2.80;1.27;;;;;;;22.71;40.97;101333.50;5055732;28;20049;-63
2023/01/01 11:35:53;;;;;;;3.28;1.25;;;;;;;22.62;41.32;101330.88;5037716;28;20025;-63
2023/01/01 11:38:20;;;;;;;6.25;1.02;;;;;;;22.61;40.92;101334.63;5038196;28;20025;-62